Valley International Airport
KHRL : now visible

Airfield :











YOU CAN JOIN US ON...

 
LOGIN :

Register | Disclaimer

   EN    FR    IT 

 









Legend :    VFR   Marginal VFR   IFR   Intensive IFR   Very Intensive IFR
Visi :
Ceiling :
>= 8 km
>= 3000ft
5 to 8 km
1000 to 3000 ft
1500m to 5 km
500 to 1000 ft
800 to 1500m
200 to 500 ft
< 800m
< 200 ft
Symbols :   Thunderstorms  Fog  Heavy snow  Heavy precipitations  Wind > 20 kt






- Airport Elevation : 36 ft
- IATA code : HRL


KHRL - Valley International

CURRENT METAR :
  • 141252Z 33009KT 10SM BKN020 OVC028 07/06 A3013 RMK AO2 SLP202 T00720061

EXPIRED METARs :
  • 141152Z 33010KT 10SM OVC022 07/06 A3010 RMK AO2 SLP194 60011 70015 T00720056 10072 20056 55000 $
  • 141052Z AUTO 08008KT 10SM BKN015 OVC026 07/05 A3008 RMK AO2 WSHFT 0944 RAB0955E14 SLP185 P0000 T00670050 TSNO $

TAF KHRL
Valid from the 14 at 12:00 until the 15 at 12:00 UTC


141120Z 1412/1512 32010KT P6SM BKN015 OVC030
FM141800 33014G20KT P6SM BKN015 OVC035
FM150400 33016G22KT P6SM OVC014



MET'MAP, your aeronautical weather chart ! - Copyright ORBIFLY December 2007 - Disclaimer

ORBIFLY MET'MAP TEAM :

Programming & Development : Alexandra Zaïnal
Concept & Development : Baudouin d'Aumeries
Co-Development & Prog : Marc-Olivier Méhu
Technical & hardware support : Manuel Goepfert

Contact : metmap@orbifly.com




SOURCES & CREDITS :

   NOAA       Earth
Advisory